sensor_id;sensor_type;location;lat;lon;timestamp;P1;durP1;ratioP1;P2;durP2;ratioP2
39654;SDS011;25336;59.944;11.010;2023-12-22T00:00:29;1.90;;;1.80;;
39654;SDS011;25336;59.944;11.010;2023-12-22T00:02:55;2.78;;;2.33;;
39654;SDS011;25336;59.944;11.010;2023-12-22T00:05:21;3.58;;;1.88;;
39654;SDS011;25336;59.944;11.010;2023-12-22T00:07:46;3.05;;;2.38;;
39654;SDS011;25336;59.944;11.010;2023-12-22T00:10:12;3.10;;;2.30;;
39654;SDS011;25336;59.944;11.010;2023-12-22T00:12:38;4.45;;;2.25;;
39654;SDS011;25336;59.944;11.010;2023-12-22T00:15:04;2.40;;;2.20;;
39654;SDS011;25336;59.944;11.010;2023-12-22T00:17:31;4.03;;;2.60;;
39654;SDS011;25336;59.944;11.010;2023-12-22T00:19:56;3.58;;;1.65;;
39654;SDS011;25336;59.944;11.010;2023-12-22T00:22:24;3.38;;;2.30;;
39654;SDS011;25336;59.944;11.010;2023-12-22T00:24:50;2.85;;;2.10;;
39654;SDS011;25336;59.944;11.010;2023-12-22T00:27:16;3.20;;;2.40;;
39654;SDS011;25336;59.944;11.010;2023-12-22T00:29:42;2.45;;;2.22;;
39654;SDS011;25336;59.944;11.010;2023-12-22T00:32:09;1.77;;;1.67;;
39654;SDS011;25336;59.944;11.010;2023-12-22T00:34:35;2.10;;;1.73;;
39654;SDS011;25336;59.944;11.010;2023-12-22T00:37:01;1.63;;;1.52;;
39654;SDS011;25336;59.944;11.010;2023-12-22T00:39:27;1.52;;;1.42;;
39654;SDS011;25336;59.944;11.010;2023-12-22T00:41:53;1.67;;;1.45;;
39654;SDS011;25336;59.944;11.010;2023-12-22T00:44:18;1.63;;;1.45;;
39654;SDS011;25336;59.944;11.010;2023-12-22T00:46:44;2.05;;;1.70;;
39654;SDS011;25336;59.944;11.010;2023-12-22T00:49:10;2.05;;;1.70;;
39654;SDS011;25336;59.944;11.010;2023-12-22T00:51:35;1.88;;;1.67;;
39654;SDS011;25336;59.944;11.010;2023-12-22T00:54:01;2.38;;;1.80;;
39654;SDS011;25336;59.944;11.010;2023-12-22T00:56:27;1.58;;;1.45;;
39654;SDS011;25336;59.944;11.010;2023-12-22T00:58:53;1.83;;;1.58;;
39654;SDS011;25336;59.944;11.010;2023-12-22T01:01:18;1.92;;;1.73;;
39654;SDS011;25336;59.944;11.010;2023-12-22T01:03:45;1.50;;;1.40;;
39654;SDS011;25336;59.944;11.010;2023-12-22T01:06:11;1.55;;;1.45;;
39654;SDS011;25336;59.944;11.010;2023-12-22T01:08:37;1.73;;;1.55;;
39654;SDS011;25336;59.944;11.010;2023-12-22T01:11:03;1.85;;;1.75;;
39654;SDS011;25336;59.944;11.010;2023-12-22T01:13:29;2.17;;;1.77;;
39654;SDS011;25336;59.944;11.010;2023-12-22T01:15:55;1.73;;;1.63;;
39654;SDS011;25336;59.944;11.010;2023-12-22T01:18:20;2.38;;;1.60;;
39654;SDS011;25336;59.944;11.010;2023-12-22T01:20:46;1.35;;;1.25;;
39654;SDS011;25336;59.944;11.010;2023-12-22T01:23:12;1.88;;;1.25;;
39654;SDS011;25336;59.944;11.010;2023-12-22T01:25:37;2.72;;;1.48;;
39654;SDS011;25336;59.944;11.010;2023-12-22T01:28:03;1.13;;;1.10;;
39654;SDS011;25336;59.944;11.010;2023-12-22T01:30:29;1.35;;;1.25;;
39654;SDS011;25336;59.944;11.010;2023-12-22T01:32:54;1.40;;;1.20;;
39654;SDS011;25336;59.944;11.010;2023-12-22T01:35:21;1.55;;;1.33;;
39654;SDS011;25336;59.944;11.010;2023-12-22T01:37:46;1.58;;;1.48;;
39654;SDS011;25336;59.944;11.010;2023-12-22T01:40:13;1.83;;;1.63;;
39654;SDS011;25336;59.944;11.010;2023-12-22T01:42:39;1.77;;;1.33;;
39654;SDS011;25336;59.944;11.010;2023-12-22T01:45:05;2.15;;;1.40;;
39654;SDS011;25336;59.944;11.010;2023-12-22T01:47:31;1.20;;;1.10;;
39654;SDS011;25336;59.944;11.010;2023-12-22T01:49:58;1.30;;;1.20;;
39654;SDS011;25336;59.944;11.010;2023-12-22T01:52:25;1.58;;;1.42;;
39654;SDS011;25336;59.944;11.010;2023-12-22T01:54:52;1.10;;;1.10;;
39654;SDS011;25336;59.944;11.010;2023-12-22T01:57:20;1.40;;;1.30;;
39654;SDS011;25336;59.944;11.010;2023-12-22T01:59:46;1.48;;;1.38;;
39654;SDS011;25336;59.944;11.010;2023-12-22T02:02:14;1.50;;;1.40;;
39654;SDS011;25336;59.944;11.010;2023-12-22T02:04:40;1.40;;;1.30;;
39654;SDS011;25336;59.944;11.010;2023-12-22T02:07:06;0.90;;;0.90;;
39654;SDS011;25336;59.944;11.010;2023-12-22T02:09:34;1.67;;;1.33;;
39654;SDS011;25336;59.944;11.010;2023-12-22T02:12:00;2.80;;;1.33;;
39654;SDS011;25336;59.944;11.010;2023-12-22T02:14:26;1.10;;;1.02;;
39654;SDS011;25336;59.944;11.010;2023-12-22T02:16:55;1.42;;;1.02;;
39654;SDS011;25336;59.944;11.010;2023-12-22T02:19:47;2.92;;;0.90;;
39654;SDS011;25336;59.944;11.010;2023-12-22T02:22:13;1.48;;;1.38;;
39654;SDS011;25336;59.944;11.010;2023-12-22T02:24:40;1.20;;;1.10;;
39654;SDS011;25336;59.944;11.010;2023-12-22T02:29:46;1.20;;;1.10;;
39654;SDS011;25336;59.944;11.010;2023-12-22T02:32:21;2.22;;;1.23;;
39654;SDS011;25336;59.944;11.010;2023-12-22T02:34:51;1.45;;;1.10;;
39654;SDS011;25336;59.944;11.010;2023-12-22T02:37:18;1.70;;;1.42;;
39654;SDS011;25336;59.944;11.010;2023-12-22T02:39:46;1.58;;;1.30;;
39654;SDS011;25336;59.944;11.010;2023-12-22T02:42:12;0.93;;;0.93;;
39654;SDS011;25336;59.944;11.010;2023-12-22T02:44:38;1.45;;;1.30;;
39654;SDS011;25336;59.944;11.010;2023-12-22T02:47:05;1.33;;;1.23;;
39654;SDS011;25336;59.944;11.010;2023-12-22T02:49:31;1.30;;;1.20;;
39654;SDS011;25336;59.944;11.010;2023-12-22T02:51:56;1.85;;;1.35;;
39654;SDS011;25336;59.944;11.010;2023-12-22T02:54:22;1.27;;;1.17;;
39654;SDS011;25336;59.944;11.010;2023-12-22T02:56:47;0.93;;;0.93;;
39654;SDS011;25336;59.944;11.010;2023-12-22T02:59:13;1.20;;;1.10;;
39654;SDS011;25336;59.944;11.010;2023-12-22T03:01:39;1.20;;;1.10;;
39654;SDS011;25336;59.944;11.010;2023-12-22T03:04:05;1.15;;;1.05;;
39654;SDS011;25336;59.944;11.010;2023-12-22T03:06:30;1.00;;;0.95;;
39654;SDS011;25336;59.944;11.010;2023-12-22T03:08:57;1.48;;;1.35;;
39654;SDS011;25336;59.944;11.010;2023-12-22T03:11:23;0.90;;;0.90;;
39654;SDS011;25336;59.944;11.010;2023-12-22T03:13:48;1.50;;;1.10;;
39654;SDS011;25336;59.944;11.010;2023-12-22T03:16:14;1.00;;;0.90;;
39654;SDS011;25336;59.944;11.010;2023-12-22T03:18:40;1.10;;;1.00;;
39654;SDS011;25336;59.944;11.010;2023-12-22T03:21:05;1.20;;;1.10;;
39654;SDS011;25336;59.944;11.010;2023-12-22T03:23:31;1.02;;;0.90;;
39654;SDS011;25336;59.944;11.010;2023-12-22T03:25:56;1.30;;;1.05;;
39654;SDS011;25336;59.944;11.010;2023-12-22T03:28:22;0.88;;;0.88;;
39654;SDS011;25336;59.944;11.010;2023-12-22T03:30:48;1.23;;;1.13;;
39654;SDS011;25336;59.944;11.010;2023-12-22T03:33:14;1.55;;;1.08;;
39654;SDS011;25336;59.944;11.010;2023-12-22T03:35:40;0.80;;;0.80;;
39654;SDS011;25336;59.944;11.010;2023-12-22T03:38:05;1.65;;;1.30;;
39654;SDS011;25336;59.944;11.010;2023-12-22T03:40:31;0.90;;;0.90;;
39654;SDS011;25336;59.944;11.010;2023-12-22T03:42:58;1.63;;;0.90;;
39654;SDS011;25336;59.944;11.010;2023-12-22T03:45:24;1.45;;;1.00;;
39654;SDS011;25336;59.944;11.010;2023-12-22T03:47:50;1.17;;;1.08;;
39654;SDS011;25336;59.944;11.010;2023-12-22T03:50:15;1.42;;;1.17;;
39654;SDS011;25336;59.944;11.010;2023-12-22T03:52:41;1.52;;;1.42;;
39654;SDS011;25336;59.944;11.010;2023-12-22T03:55:07;0.88;;;0.80;;
39654;SDS011;25336;59.944;11.010;2023-12-22T03:57:32;1.27;;;1.20;;
39654;SDS011;25336;59.944;11.010;2023-12-22T03:59:58;1.55;;;1.20;;
39654;SDS011;25336;59.944;11.010;2023-12-22T04:02:23;1.02;;;0.82;;
39654;SDS011;25336;59.944;11.010;2023-12-22T04:04:49;1.45;;;0.98;;
39654;SDS011;25336;59.944;11.010;2023-12-22T04:07:15;1.25;;;1.15;;
39654;SDS011;25336;59.944;11.010;2023-12-22T04:09:41;0.90;;;0.90;;
39654;SDS011;25336;59.944;11.010;2023-12-22T04:12:06;1.23;;;1.13;;
39654;SDS011;25336;59.944;11.010;2023-12-22T04:14:32;2.08;;;1.23;;
39654;SDS011;25336;59.944;11.010;2023-12-22T04:16:58;1.35;;;1.20;;
39654;SDS011;25336;59.944;11.010;2023-12-22T04:19:23;1.10;;;1.00;;
39654;SDS011;25336;59.944;11.010;2023-12-22T04:21:49;2.70;;;1.60;;
39654;SDS011;25336;59.944;11.010;2023-12-22T04:24:15;2.58;;;1.80;;
39654;SDS011;25336;59.944;11.010;2023-12-22T04:26:41;1.50;;;1.40;;
39654;SDS011;25336;59.944;11.010;2023-12-22T04:29:06;1.35;;;1.17;;
39654;SDS011;25336;59.944;11.010;2023-12-22T04:31:32;1.92;;;1.10;;
39654;SDS011;25336;59.944;11.010;2023-12-22T04:33:57;1.30;;;1.10;;
39654;SDS011;25336;59.944;11.010;2023-12-22T04:36:23;1.85;;;1.73;;
39654;SDS011;25336;59.944;11.010;2023-12-22T04:38:50;1.23;;;1.13;;
39654;SDS011;25336;59.944;11.010;2023-12-22T04:41:15;1.48;;;1.38;;
39654;SDS011;25336;59.944;11.010;2023-12-22T04:43:41;1.27;;;1.17;;
39654;SDS011;25336;59.944;11.010;2023-12-22T04:46:07;1.30;;;1.20;;
39654;SDS011;25336;59.944;11.010;2023-12-22T04:48:33;1.35;;;1.02;;
39654;SDS011;25336;59.944;11.010;2023-12-22T04:50:58;3.67;;;1.30;;
39654;SDS011;25336;59.944;11.010;2023-12-22T04:53:24;1.48;;;1.02;;
39654;SDS011;25336;59.944;11.010;2023-12-22T04:55:50;2.75;;;1.45;;
39654;SDS011;25336;59.944;11.010;2023-12-22T04:58:15;1.20;;;1.10;;
39654;SDS011;25336;59.944;11.010;2023-12-22T05:00:41;1.30;;;1.20;;
39654;SDS011;25336;59.944;11.010;2023-12-22T05:03:07;2.17;;;1.40;;
39654;SDS011;25336;59.944;11.010;2023-12-22T05:05:32;1.52;;;1.35;;
39654;SDS011;25336;59.944;11.010;2023-12-22T05:07:58;1.50;;;0.98;;
39654;SDS011;25336;59.944;11.010;2023-12-22T05:10:24;1.65;;;1.15;;
39654;SDS011;25336;59.944;11.010;2023-12-22T05:12:50;0.95;;;0.95;;
39654;SDS011;25336;59.944;11.010;2023-12-22T05:15:15;2.38;;;1.40;;
39654;SDS011;25336;59.944;11.010;2023-12-22T05:17:41;1.20;;;1.10;;
39654;SDS011;25336;59.944;11.010;2023-12-22T05:20:07;1.50;;;1.20;;
39654;SDS011;25336;59.944;11.010;2023-12-22T05:22:38;3.75;;;1.60;;
39654;SDS011;25336;59.944;11.010;2023-12-22T05:25:04;1.10;;;1.00;;
39654;SDS011;25336;59.944;11.010;2023-12-22T05:27:30;1.38;;;1.27;;
39654;SDS011;25336;59.944;11.010;2023-12-22T05:29:56;2.15;;;1.95;;
39654;SDS011;25336;59.944;11.010;2023-12-22T05:32:26;1.05;;;1.00;;
39654;SDS011;25336;59.944;11.010;2023-12-22T05:34:52;1.95;;;1.60;;
39654;SDS011;25336;59.944;11.010;2023-12-22T05:37:18;0.88;;;0.88;;
39654;SDS011;25336;59.944;11.010;2023-12-22T05:39:43;1.20;;;1.10;;
39654;SDS011;25336;59.944;11.010;2023-12-22T05:42:10;1.40;;;1.30;;
39654;SDS011;25336;59.944;11.010;2023-12-22T05:44:36;2.00;;;1.23;;
39654;SDS011;25336;59.944;11.010;2023-12-22T05:47:03;1.75;;;1.40;;
39654;SDS011;25336;59.944;11.010;2023-12-22T05:49:30;0.80;;;0.80;;
39654;SDS011;25336;59.944;11.010;2023-12-22T05:51:55;1.27;;;1.13;;
39654;SDS011;25336;59.944;11.010;2023-12-22T05:54:21;1.42;;;1.30;;
39654;SDS011;25336;59.944;11.010;2023-12-22T05:56:48;1.70;;;1.25;;
39654;SDS011;25336;59.944;11.010;2023-12-22T05:59:16;1.63;;;1.52;;
39654;SDS011;25336;59.944;11.010;2023-12-22T06:01:41;1.75;;;1.48;;
39654;SDS011;25336;59.944;11.010;2023-12-22T06:04:07;1.90;;;1.70;;
39654;SDS011;25336;59.944;11.010;2023-12-22T06:06:33;2.83;;;1.80;;
39654;SDS011;25336;59.944;11.010;2023-12-22T06:08:58;3.85;;;2.10;;
39654;SDS011;25336;59.944;11.010;2023-12-22T06:11:24;2.97;;;2.50;;
39654;SDS011;25336;59.944;11.010;2023-12-22T06:13:50;2.75;;;1.65;;
39654;SDS011;25336;59.944;11.010;2023-12-22T06:16:15;4.20;;;1.73;;
39654;SDS011;25336;59.944;11.010;2023-12-22T06:18:43;3.42;;;1.80;;
39654;SDS011;25336;59.944;11.010;2023-12-22T06:21:09;2.28;;;1.48;;
39654;SDS011;25336;59.944;11.010;2023-12-22T06:23:35;4.65;;;2.03;;
39654;SDS011;25336;59.944;11.010;2023-12-22T06:26:01;3.30;;;2.10;;
39654;SDS011;25336;59.944;11.010;2023-12-22T06:30:58;2.53;;;1.90;;
39654;SDS011;25336;59.944;11.010;2023-12-22T06:33:24;2.95;;;1.90;;
39654;SDS011;25336;59.944;11.010;2023-12-22T06:35:49;1.98;;;1.70;;
39654;SDS011;25336;59.944;11.010;2023-12-22T06:38:18;3.25;;;1.88;;
39654;SDS011;25336;59.944;11.010;2023-12-22T06:40:44;2.88;;;1.70;;
39654;SDS011;25336;59.944;11.010;2023-12-22T06:43:12;3.10;;;1.40;;
39654;SDS011;25336;59.944;11.010;2023-12-22T06:45:38;2.35;;;1.58;;
39654;SDS011;25336;59.944;11.010;2023-12-22T06:48:05;1.95;;;1.50;;
39654;SDS011;25336;59.944;11.010;2023-12-22T06:50:31;1.35;;;1.25;;
39654;SDS011;25336;59.944;11.010;2023-12-22T06:52:57;2.75;;;2.15;;
39654;SDS011;25336;59.944;11.010;2023-12-22T06:55:23;5.78;;;3.45;;
39654;SDS011;25336;59.944;11.010;2023-12-22T06:57:49;4.30;;;2.33;;
39654;SDS011;25336;59.944;11.010;2023-12-22T07:00:15;5.03;;;2.17;;
39654;SDS011;25336;59.944;11.010;2023-12-22T07:02:41;2.65;;;2.17;;
39654;SDS011;25336;59.944;11.010;2023-12-22T07:07:46;4.75;;;2.20;;
39654;SDS011;25336;59.944;11.010;2023-12-22T07:10:12;2.55;;;1.77;;
39654;SDS011;25336;59.944;11.010;2023-12-22T07:12:37;3.65;;;1.70;;
39654;SDS011;25336;59.944;11.010;2023-12-22T07:15:04;4.50;;;2.25;;
39654;SDS011;25336;59.944;11.010;2023-12-22T07:17:34;2.15;;;1.77;;
39654;SDS011;25336;59.944;11.010;2023-12-22T07:20:00;4.63;;;1.63;;
39654;SDS011;25336;59.944;11.010;2023-12-22T07:22:28;2.00;;;1.58;;
39654;SDS011;25336;59.944;11.010;2023-12-22T07:24:54;2.58;;;1.50;;
39654;SDS011;25336;59.944;11.010;2023-12-22T07:27:20;5.72;;;1.83;;
39654;SDS011;25336;59.944;11.010;2023-12-22T07:29:46;3.38;;;2.47;;
39654;SDS011;25336;59.944;11.010;2023-12-22T07:32:12;2.88;;;2.30;;
39654;SDS011;25336;59.944;11.010;2023-12-22T07:34:38;4.10;;;2.30;;
39654;SDS011;25336;59.944;11.010;2023-12-22T07:37:03;5.40;;;3.13;;
39654;SDS011;25336;59.944;11.010;2023-12-22T07:39:32;4.97;;;3.28;;
39654;SDS011;25336;59.944;11.010;2023-12-22T07:41:57;4.40;;;3.15;;
39654;SDS011;25336;59.944;11.010;2023-12-22T07:44:23;3.75;;;2.78;;
39654;SDS011;25336;59.944;11.010;2023-12-22T07:46:55;3.28;;;2.38;;
39654;SDS011;25336;59.944;11.010;2023-12-22T07:49:23;3.65;;;2.28;;
39654;SDS011;25336;59.944;11.010;2023-12-22T07:51:50;3.03;;;2.13;;
39654;SDS011;25336;59.944;11.010;2023-12-22T07:54:17;2.13;;;1.83;;
39654;SDS011;25336;59.944;11.010;2023-12-22T07:56:43;1.65;;;1.55;;
39654;SDS011;25336;59.944;11.010;2023-12-22T07:59:09;2.63;;;1.77;;
39654;SDS011;25336;59.944;11.010;2023-12-22T08:01:35;1.90;;;1.70;;
39654;SDS011;25336;59.944;11.010;2023-12-22T08:04:00;2.03;;;1.60;;
39654;SDS011;25336;59.944;11.010;2023-12-22T08:06:26;1.70;;;1.60;;
39654;SDS011;25336;59.944;11.010;2023-12-22T08:08:52;2.90;;;1.83;;
39654;SDS011;25336;59.944;11.010;2023-12-22T08:11:19;2.05;;;1.85;;
39654;SDS011;25336;59.944;11.010;2023-12-22T08:13:47;2.33;;;2.00;;
39654;SDS011;25336;59.944;11.010;2023-12-22T08:16:13;2.63;;;2.05;;
39654;SDS011;25336;59.944;11.010;2023-12-22T08:18:38;2.63;;;2.03;;
39654;SDS011;25336;59.944;11.010;2023-12-22T08:21:04;2.40;;;1.65;;
39654;SDS011;25336;59.944;11.010;2023-12-22T08:23:31;3.70;;;1.95;;
39654;SDS011;25336;59.944;11.010;2023-12-22T08:25:57;2.20;;;1.70;;
39654;SDS011;25336;59.944;11.010;2023-12-22T08:28:23;3.08;;;2.03;;
39654;SDS011;25336;59.944;11.010;2023-12-22T08:30:49;2.08;;;1.90;;
39654;SDS011;25336;59.944;11.010;2023-12-22T08:33:15;2.40;;;1.92;;
39654;SDS011;25336;59.944;11.010;2023-12-22T08:35:40;2.00;;;1.60;;
39654;SDS011;25336;59.944;11.010;2023-12-22T08:38:06;3.40;;;2.28;;
39654;SDS011;25336;59.944;11.010;2023-12-22T08:40:32;2.78;;;2.42;;
39654;SDS011;25336;59.944;11.010;2023-12-22T08:42:58;3.42;;;2.70;;
39654;SDS011;25336;59.944;11.010;2023-12-22T08:45:26;2.30;;;2.10;;
39654;SDS011;25336;59.944;11.010;2023-12-22T08:47:55;3.22;;;1.63;;
39654;SDS011;25336;59.944;11.010;2023-12-22T08:50:23;4.03;;;2.28;;
39654;SDS011;25336;59.944;11.010;2023-12-22T08:52:48;3.85;;;1.95;;
39654;SDS011;25336;59.944;11.010;2023-12-22T08:55:14;2.65;;;2.13;;
39654;SDS011;25336;59.944;11.010;2023-12-22T08:57:41;3.20;;;2.10;;
39654;SDS011;25336;59.944;11.010;2023-12-22T09:00:06;7.15;;;2.45;;
39654;SDS011;25336;59.944;11.010;2023-12-22T09:02:32;2.65;;;2.13;;
39654;SDS011;25336;59.944;11.010;2023-12-22T09:04:58;2.22;;;1.63;;
39654;SDS011;25336;59.944;11.010;2023-12-22T09:07:24;4.43;;;2.30;;
39654;SDS011;25336;59.944;11.010;2023-12-22T09:09:50;3.25;;;2.42;;
39654;SDS011;25336;59.944;11.010;2023-12-22T09:12:15;3.88;;;2.65;;
39654;SDS011;25336;59.944;11.010;2023-12-22T09:14:41;7.05;;;2.10;;
39654;SDS011;25336;59.944;11.010;2023-12-22T09:17:07;3.65;;;2.70;;
39654;SDS011;25336;59.944;11.010;2023-12-22T09:19:33;3.25;;;2.33;;
39654;SDS011;25336;59.944;11.010;2023-12-22T09:21:59;2.83;;;2.40;;
39654;SDS011;25336;59.944;11.010;2023-12-22T09:24:25;2.97;;;2.67;;
39654;SDS011;25336;59.944;11.010;2023-12-22T09:26:51;2.92;;;2.25;;
39654;SDS011;25336;59.944;11.010;2023-12-22T09:29:17;2.67;;;2.15;;
39654;SDS011;25336;59.944;11.010;2023-12-22T09:31:43;2.38;;;2.17;;
39654;SDS011;25336;59.944;11.010;2023-12-22T09:34:08;2.55;;;2.03;;
39654;SDS011;25336;59.944;11.010;2023-12-22T09:36:34;3.40;;;2.10;;
39654;SDS011;25336;59.944;11.010;2023-12-22T09:39:01;2.25;;;2.05;;
39654;SDS011;25336;59.944;11.010;2023-12-22T09:41:27;2.97;;;1.90;;
39654;SDS011;25336;59.944;11.010;2023-12-22T09:43:53;4.05;;;2.20;;
39654;SDS011;25336;59.944;11.010;2023-12-22T09:46:21;3.78;;;2.95;;
39654;SDS011;25336;59.944;11.010;2023-12-22T09:48:49;4.38;;;2.65;;
39654;SDS011;25336;59.944;11.010;2023-12-22T09:51:17;2.80;;;2.13;;
39654;SDS011;25336;59.944;11.010;2023-12-22T09:53:44;2.42;;;2.08;;
39654;SDS011;25336;59.944;11.010;2023-12-22T09:56:11;3.20;;;2.53;;
39654;SDS011;25336;59.944;11.010;2023-12-22T09:58:39;2.97;;;2.42;;
39654;SDS011;25336;59.944;11.010;2023-12-22T10:01:06;2.88;;;2.53;;
39654;SDS011;25336;59.944;11.010;2023-12-22T10:03:35;2.83;;;2.10;;
39654;SDS011;25336;59.944;11.010;2023-12-22T10:06:02;2.20;;;2.00;;
39654;SDS011;25336;59.944;11.010;2023-12-22T10:08:29;2.20;;;1.98;;
39654;SDS011;25336;59.944;11.010;2023-12-22T10:10:55;2.95;;;2.53;;
39654;SDS011;25336;59.944;11.010;2023-12-22T10:13:22;3.63;;;3.10;;
39654;SDS011;25336;59.944;11.010;2023-12-22T10:15:48;3.63;;;2.90;;
39654;SDS011;25336;59.944;11.010;2023-12-22T10:18:14;4.45;;;2.80;;
39654;SDS011;25336;59.944;11.010;2023-12-22T10:20:40;4.75;;;2.55;;
39654;SDS011;25336;59.944;11.010;2023-12-22T10:23:07;2.90;;;2.55;;
39654;SDS011;25336;59.944;11.010;2023-12-22T10:25:33;3.30;;;2.97;;
39654;SDS011;25336;59.944;11.010;2023-12-22T10:27:59;2.65;;;2.20;;
39654;SDS011;25336;59.944;11.010;2023-12-22T10:30:24;2.78;;;2.33;;
39654;SDS011;25336;59.944;11.010;2023-12-22T10:32:51;2.25;;;2.05;;
39654;SDS011;25336;59.944;11.010;2023-12-22T10:35:17;3.45;;;2.58;;
39654;SDS011;25336;59.944;11.010;2023-12-22T10:37:43;4.40;;;2.35;;
39654;SDS011;25336;59.944;11.010;2023-12-22T10:40:11;2.63;;;2.42;;
39654;SDS011;25336;59.944;11.010;2023-12-22T10:42:37;6.32;;;2.97;;
39654;SDS011;25336;59.944;11.010;2023-12-22T10:45:04;2.55;;;2.20;;
39654;SDS011;25336;59.944;11.010;2023-12-22T10:47:31;3.42;;;2.40;;
39654;SDS011;25336;59.944;11.010;2023-12-22T10:50:01;2.25;;;2.05;;
39654;SDS011;25336;59.944;11.010;2023-12-22T10:52:29;3.17;;;2.72;;
39654;SDS011;25336;59.944;11.010;2023-12-22T10:54:56;3.05;;;2.58;;
39654;SDS011;25336;59.944;11.010;2023-12-22T10:57:23;3.97;;;2.65;;
39654;SDS011;25336;59.944;11.010;2023-12-22T10:59:49;3.00;;;2.40;;
39654;SDS011;25336;59.944;11.010;2023-12-22T11:02:16;2.80;;;2.15;;
39654;SDS011;25336;59.944;11.010;2023-12-22T11:04:47;5.32;;;2.10;;
39654;SDS011;25336;59.944;11.010;2023-12-22T11:07:30;2.83;;;2.40;;
39654;SDS011;25336;59.944;11.010;2023-12-22T11:10:02;3.00;;;2.20;;
39654;SDS011;25336;59.944;11.010;2023-12-22T11:12:31;3.72;;;2.40;;
39654;SDS011;25336;59.944;11.010;2023-12-22T11:14:59;2.90;;;2.25;;
39654;SDS011;25336;59.944;11.010;2023-12-22T11:17:26;2.65;;;2.03;;
39654;SDS011;25336;59.944;11.010;2023-12-22T11:19:54;4.18;;;2.90;;
39654;SDS011;25336;59.944;11.010;2023-12-22T11:22:21;3.88;;;2.58;;
39654;SDS011;25336;59.944;11.010;2023-12-22T11:24:48;3.13;;;2.22;;
39654;SDS011;25336;59.944;11.010;2023-12-22T11:27:17;2.97;;;2.33;;
39654;SDS011;25336;59.944;11.010;2023-12-22T11:29:47;2.58;;;2.30;;
39654;SDS011;25336;59.944;11.010;2023-12-22T11:32:17;2.90;;;2.05;;
39654;SDS011;25336;59.944;11.010;2023-12-22T11:34:43;4.53;;;2.08;;
39654;SDS011;25336;59.944;11.010;2023-12-22T11:37:13;2.40;;;1.80;;
39654;SDS011;25336;59.944;11.010;2023-12-22T11:39:40;2.38;;;1.65;;
39654;SDS011;25336;59.944;11.010;2023-12-22T11:42:07;2.15;;;1.60;;
39654;SDS011;25336;59.944;11.010;2023-12-22T11:44:36;2.83;;;2.10;;
39654;SDS011;25336;59.944;11.010;2023-12-22T11:47:05;1.70;;;1.60;;
39654;SDS011;25336;59.944;11.010;2023-12-22T11:49:35;2.85;;;1.95;;
39654;SDS011;25336;59.944;11.010;2023-12-22T11:52:15;2.00;;;1.80;;
39654;SDS011;25336;59.944;11.010;2023-12-22T11:54:46;2.58;;;2.00;;
39654;SDS011;25336;59.944;11.010;2023-12-22T11:57:29;2.28;;;1.67;;
39654;SDS011;25336;59.944;11.010;2023-12-22T12:00:09;2.97;;;1.60;;
39654;SDS011;25336;59.944;11.010;2023-12-22T12:03:04;2.83;;;2.55;;
39654;SDS011;25336;59.944;11.010;2023-12-22T12:05:31;3.17;;;2.67;;
39654;SDS011;25336;59.944;11.010;2023-12-22T12:08:06;4.70;;;3.22;;
39654;SDS011;25336;59.944;11.010;2023-12-22T12:13:07;2.65;;;2.20;;
39654;SDS011;25336;59.944;11.010;2023-12-22T12:15:33;4.28;;;2.03;;
39654;SDS011;25336;59.944;11.010;2023-12-22T12:18:00;2.00;;;1.80;;
39654;SDS011;25336;59.944;11.010;2023-12-22T12:20:26;4.25;;;2.10;;
39654;SDS011;25336;59.944;11.010;2023-12-22T12:22:56;2.55;;;2.00;;
39654;SDS011;25336;59.944;11.010;2023-12-22T12:25:28;3.35;;;2.58;;
39654;SDS011;25336;59.944;11.010;2023-12-22T12:28:01;3.88;;;2.92;;
39654;SDS011;25336;59.944;11.010;2023-12-22T12:30:29;3.97;;;2.17;;
39654;SDS011;25336;59.944;11.010;2023-12-22T12:32:58;2.47;;;1.38;;
39654;SDS011;25336;59.944;11.010;2023-12-22T12:35:28;2.13;;;1.00;;
39654;SDS011;25336;59.944;11.010;2023-12-22T12:37:54;1.35;;;1.00;;
39654;SDS011;25336;59.944;11.010;2023-12-22T12:40:20;2.17;;;1.55;;
39654;SDS011;25336;59.944;11.010;2023-12-22T12:42:49;3.08;;;1.15;;
39654;SDS011;25336;59.944;11.010;2023-12-22T12:45:19;1.20;;;1.10;;
39654;SDS011;25336;59.944;11.010;2023-12-22T12:47:57;4.68;;;1.30;;
39654;SDS011;25336;59.944;11.010;2023-12-22T12:50:23;1.63;;;0.80;;
39654;SDS011;25336;59.944;11.010;2023-12-22T12:52:51;3.30;;;1.00;;
39654;SDS011;25336;59.944;11.010;2023-12-22T12:55:19;3.30;;;0.82;;
39654;SDS011;25336;59.944;11.010;2023-12-22T12:57:48;1.90;;;1.20;;
39654;SDS011;25336;59.944;11.010;2023-12-22T13:00:16;3.92;;;1.38;;
39654;SDS011;25336;59.944;11.010;2023-12-22T13:02:48;2.17;;;1.00;;
39654;SDS011;25336;59.944;11.010;2023-12-22T13:05:24;2.13;;;1.48;;
39654;SDS011;25336;59.944;11.010;2023-12-22T13:07:50;2.28;;;1.40;;
39654;SDS011;25336;59.944;11.010;2023-12-22T13:10:22;1.88;;;1.10;;
39654;SDS011;25336;59.944;11.010;2023-12-22T13:12:52;2.45;;;1.25;;
39654;SDS011;25336;59.944;11.010;2023-12-22T13:15:22;2.53;;;1.65;;
39654;SDS011;25336;59.944;11.010;2023-12-22T13:17:47;3.78;;;1.58;;
39654;SDS011;25336;59.944;11.010;2023-12-22T13:20:14;5.22;;;2.50;;
39654;SDS011;25336;59.944;11.010;2023-12-22T13:22:40;3.35;;;2.20;;
39654;SDS011;25336;59.944;11.010;2023-12-22T13:25:06;5.00;;;2.42;;
39654;SDS011;25336;59.944;11.010;2023-12-22T13:27:43;2.63;;;1.67;;
39654;SDS011;25336;59.944;11.010;2023-12-22T13:30:13;4.45;;;1.80;;
39654;SDS011;25336;59.944;11.010;2023-12-22T13:32:40;2.15;;;1.10;;
39654;SDS011;25336;59.944;11.010;2023-12-22T13:35:06;2.50;;;1.50;;
39654;SDS011;25336;59.944;11.010;2023-12-22T13:37:32;1.65;;;1.17;;
39654;SDS011;25336;59.944;11.010;2023-12-22T13:39:58;2.70;;;1.25;;
39654;SDS011;25336;59.944;11.010;2023-12-22T13:42:24;3.67;;;0.95;;
39654;SDS011;25336;59.944;11.010;2023-12-22T13:44:51;2.03;;;1.50;;
39654;SDS011;25336;59.944;11.010;2023-12-22T13:47:20;2.40;;;1.60;;
39654;SDS011;25336;59.944;11.010;2023-12-22T13:49:47;1.52;;;1.20;;
39654;SDS011;25336;59.944;11.010;2023-12-22T13:52:29;1.75;;;1.27;;
39654;SDS011;25336;59.944;11.010;2023-12-22T13:54:57;2.63;;;1.48;;
39654;SDS011;25336;59.944;11.010;2023-12-22T13:57:26;2.33;;;1.40;;
39654;SDS011;25336;59.944;11.010;2023-12-22T13:59:51;2.10;;;1.10;;
39654;SDS011;25336;59.944;11.010;2023-12-22T14:02:19;2.25;;;1.52;;
39654;SDS011;25336;59.944;11.010;2023-12-22T14:04:47;5.05;;;1.80;;
39654;SDS011;25336;59.944;11.010;2023-12-22T14:07:13;4.72;;;1.75;;
39654;SDS011;25336;59.944;11.010;2023-12-22T14:09:39;8.93;;;4.70;;
39654;SDS011;25336;59.944;11.010;2023-12-22T14:12:05;5.70;;;3.00;;
39654;SDS011;25336;59.944;11.010;2023-12-22T14:14:31;4.90;;;2.20;;
39654;SDS011;25336;59.944;11.010;2023-12-22T14:16:57;2.97;;;1.73;;
39654;SDS011;25336;59.944;11.010;2023-12-22T14:19:22;2.67;;;1.30;;
39654;SDS011;25336;59.944;11.010;2023-12-22T14:21:48;3.63;;;1.60;;
39654;SDS011;25336;59.944;11.010;2023-12-22T14:24:14;1.30;;;1.20;;
39654;SDS011;25336;59.944;11.010;2023-12-22T14:27:00;4.75;;;1.30;;
39654;SDS011;25336;59.944;11.010;2023-12-22T14:29:25;1.67;;;1.00;;
39654;SDS011;25336;59.944;11.010;2023-12-22T14:31:51;2.50;;;1.45;;
39654;SDS011;25336;59.944;11.010;2023-12-22T14:34:17;2.63;;;1.40;;
39654;SDS011;25336;59.944;11.010;2023-12-22T14:36:46;2.20;;;1.25;;
39654;SDS011;25336;59.944;11.010;2023-12-22T14:39:11;1.42;;;1.20;;
39654;SDS011;25336;59.944;11.010;2023-12-22T14:41:39;3.78;;;1.45;;